createdAt,value
2018-09-01T00:01:17.760Z,17.94
2018-09-01T00:03:46.425Z,17.96
2018-09-01T00:06:15.155Z,17.99
2018-09-01T00:08:43.801Z,17.93
2018-09-01T00:11:12.437Z,17.95
2018-09-01T00:13:41.229Z,17.93
2018-09-01T00:16:09.849Z,17.89
2018-09-01T00:18:39.002Z,17.90
2018-09-01T00:21:08.744Z,17.86
2018-09-01T00:23:37.330Z,17.81
2018-09-01T00:26:06.392Z,17.81
2018-09-01T00:28:35.078Z,17.78
2018-09-01T00:31:03.837Z,17.75
2018-09-01T00:33:32.464Z,17.72
2018-09-01T00:36:01.042Z,17.72
2018-09-01T00:38:34.920Z,17.72
2018-09-01T00:41:03.557Z,17.72
2018-09-01T00:43:32.188Z,17.69
2018-09-01T00:46:00.825Z,17.69
2018-09-01T00:48:29.412Z,17.68
2018-09-01T00:50:58.115Z,17.67
2018-09-01T00:53:26.794Z,17.67
2018-09-01T00:55:55.408Z,17.69
2018-09-01T00:58:24.126Z,17.63
2018-09-01T01:00:52.761Z,17.64
2018-09-01T01:03:21.569Z,17.65
2018-09-01T01:05:50.318Z,17.65
2018-09-01T01:08:18.944Z,17.71
2018-09-01T01:10:47.537Z,17.71
2018-09-01T01:13:16.189Z,17.68
2018-09-01T01:15:44.974Z,17.68
2018-09-01T01:18:13.621Z,17.72
2018-09-01T01:20:42.243Z,17.74
2018-09-01T01:23:10.884Z,17.71
2018-09-01T01:25:39.482Z,17.70
2018-09-01T01:28:08.170Z,17.67
2018-09-01T01:30:36.877Z,17.70
2018-09-01T01:33:05.508Z,17.75
2018-09-01T01:35:34.135Z,17.80
2018-09-01T01:38:02.778Z,17.85
2018-09-01T01:40:31.425Z,17.84
2018-09-01T01:43:00.161Z,17.82
2018-09-01T01:45:30.204Z,17.83
2018-09-01T01:47:59.535Z,17.84
2018-09-01T01:50:28.157Z,17.83
2018-09-01T01:52:56.816Z,17.83
2018-09-01T01:55:25.419Z,17.82
2018-09-01T01:57:54.166Z,17.80
2018-09-01T02:00:22.761Z,17.80
2018-09-01T02:02:51.384Z,17.79
2018-09-01T02:05:21.095Z,17.81
2018-09-01T02:07:50.961Z,17.83
2018-09-01T02:10:19.592Z,17.83
2018-09-01T02:12:48.220Z,17.80
2018-09-01T02:15:16.884Z,17.82
2018-09-01T02:17:45.532Z,17.83
2018-09-01T02:20:14.116Z,17.85
2018-09-01T02:22:42.848Z,17.82
2018-09-01T02:25:11.489Z,17.85
2018-09-01T02:27:40.092Z,17.82
2018-09-01T02:30:08.689Z,17.84
2018-09-01T02:32:37.305Z,17.88
2018-09-01T02:35:06.047Z,17.88
2018-09-01T02:37:34.719Z,17.85
2018-09-01T02:40:03.412Z,17.84
2018-09-01T02:42:33.052Z,17.86
2018-09-01T02:45:01.848Z,17.84
2018-09-01T02:47:30.533Z,17.82
2018-09-01T02:49:59.132Z,17.83
2018-09-01T02:52:27.764Z,17.76
2018-09-01T02:54:56.483Z,17.76
2018-09-01T02:57:25.125Z,17.74
2018-09-01T02:59:53.744Z,17.74
2018-09-01T03:02:27.917Z,17.72
2018-09-01T03:04:56.554Z,17.70
2018-09-01T03:07:25.332Z,17.67
2018-09-01T03:09:53.925Z,17.65
2018-09-01T03:12:22.615Z,17.61
2018-09-01T03:14:51.240Z,17.61
2018-09-01T03:17:20.173Z,17.67
2018-09-01T03:19:49.089Z,17.63
2018-09-01T03:22:17.794Z,17.60
2018-09-01T03:24:46.479Z,17.65
2018-09-01T03:27:15.161Z,17.66
2018-09-01T03:29:43.889Z,17.71
2018-09-01T03:32:12.461Z,17.76
2018-09-01T03:34:41.053Z,17.78
2018-09-01T03:37:09.642Z,17.78
2018-09-01T03:39:38.233Z,17.79
2018-09-01T03:42:06.859Z,17.81
2018-09-01T03:44:36.050Z,17.78
2018-09-01T03:47:04.808Z,17.75
2018-09-01T03:49:33.533Z,17.73
2018-09-01T03:52:02.261Z,17.67
2018-09-01T03:54:30.901Z,17.60
2018-09-01T03:56:59.524Z,17.56
2018-09-01T03:59:28.165Z,17.59
2018-09-01T04:01:56.852Z,17.55
2018-09-01T04:04:25.436Z,17.46
2018-09-01T04:06:54.151Z,17.51
2018-09-01T04:09:22.817Z,17.53
2018-09-01T04:11:51.572Z,17.52
2018-09-01T04:14:20.185Z,17.56
2018-09-01T04:16:48.853Z,17.53
2018-09-01T04:19:19.421Z,17.56
2018-09-01T04:21:49.781Z,17.60
2018-09-01T04:24:18.436Z,17.61
2018-09-01T04:26:47.673Z,17.60
2018-09-01T04:29:17.212Z,17.65
2018-09-01T04:31:46.972Z,17.68
2018-09-01T04:34:15.664Z,17.72
2018-09-01T04:36:44.679Z,17.75
2018-09-01T04:39:13.995Z,17.81
2018-09-01T04:41:43.336Z,17.87
2018-09-01T04:44:12.268Z,17.89
2018-09-01T04:46:41.248Z,17.92
2018-09-01T04:49:09.960Z,17.95
2018-09-01T04:51:38.720Z,17.99
2018-09-01T04:54:07.339Z,18.04
2018-09-01T04:56:36.059Z,18.10
2018-09-01T04:59:04.667Z,18.13
2018-09-01T05:01:33.405Z,18.15
2018-09-01T05:04:01.993Z,18.17
2018-09-01T05:06:30.584Z,18.16
2018-09-01T05:08:59.227Z,18.15
2018-09-01T05:11:27.930Z,18.14
2018-09-01T05:13:56.571Z,18.11
2018-09-01T05:16:25.282Z,18.13
2018-09-01T05:18:54.137Z,18.16
2018-09-01T05:21:22.776Z,18.22
2018-09-01T05:23:51.496Z,18.29
2018-09-01T05:26:20.312Z,18.36
2018-09-01T05:28:48.954Z,18.43
2018-09-01T05:31:18.992Z,18.55
2018-09-01T05:33:47.674Z,18.70
2018-09-01T05:36:16.522Z,18.78
2018-09-01T05:38:45.156Z,18.87
2018-09-01T05:41:13.801Z,18.95
2018-09-01T05:43:42.660Z,18.96
2018-09-01T05:46:11.533Z,19.00
2018-09-01T05:48:40.125Z,19.05
2018-09-01T05:51:08.784Z,19.06
2018-09-01T05:53:37.684Z,19.08
2018-09-01T05:56:06.459Z,19.09
2018-09-01T05:58:35.203Z,19.12
2018-09-01T06:01:03.988Z,19.11
2018-09-01T06:03:32.657Z,19.16
2018-09-01T06:06:01.413Z,19.31
2018-09-01T06:08:30.228Z,19.53
2018-09-01T06:10:58.958Z,19.79
2018-09-01T06:13:27.699Z,20.06
2018-09-01T06:15:56.460Z,20.10
2018-09-01T06:18:25.080Z,20.12
2018-09-01T06:20:53.833Z,19.99
2018-09-01T06:23:22.458Z,19.92
2018-09-01T06:25:51.053Z,19.86
2018-09-01T06:28:25.020Z,19.82
2018-09-01T06:30:54.780Z,19.82
2018-09-01T06:33:23.496Z,19.83
2018-09-01T06:35:52.146Z,19.82
2018-09-01T06:38:20.903Z,19.79
2018-09-01T06:40:49.523Z,19.69
2018-09-01T06:43:18.129Z,19.69
2018-09-01T06:45:48.496Z,19.59
2018-09-01T06:48:17.360Z,19.53
2018-09-01T06:50:46.697Z,19.51
2018-09-01T06:53:16.435Z,19.45
2018-09-01T06:55:45.080Z,19.40
2018-09-01T06:58:13.684Z,19.39
2018-09-01T07:00:42.605Z,19.40
2018-09-01T07:03:11.368Z,19.44
2018-09-01T07:05:40.064Z,19.47
2018-09-01T07:08:08.692Z,19.48
2018-09-01T07:10:37.293Z,19.57
2018-09-01T07:13:07.933Z,19.65
2018-09-01T07:15:37.201Z,19.73
2018-09-01T07:18:06.458Z,19.91
2018-09-01T07:20:35.048Z,19.98
2018-09-01T07:23:03.809Z,20.05
2018-09-01T07:25:32.435Z,20.08
2018-09-01T07:28:01.020Z,20.08
2018-09-01T07:30:29.943Z,20.10
2018-09-01T07:32:58.618Z,20.18
2018-09-01T07:35:27.948Z,20.35
2018-09-01T07:37:56.556Z,20.57
2018-09-01T07:40:25.140Z,20.87
2018-09-01T07:42:53.833Z,21.05
2018-09-01T07:45:22.448Z,21.26
2018-09-01T07:47:51.064Z,21.79
2018-09-01T07:50:19.905Z,22.54
2018-09-01T07:52:48.597Z,23.32
2018-09-01T07:55:17.989Z,23.93
2018-09-01T07:57:47.667Z,25.23
2018-09-01T08:00:16.922Z,25.87
2018-09-01T08:02:46.177Z,26.66
2018-09-01T08:05:15.384Z,27.26
2018-09-01T08:07:44.616Z,27.46
2018-09-01T08:10:13.783Z,27.00
2018-09-01T08:12:43.578Z,26.24
2018-09-01T08:15:12.805Z,25.63
2018-09-01T08:17:41.961Z,25.05
2018-09-01T08:20:11.254Z,24.78
2018-09-01T08:22:40.405Z,24.89
2018-09-01T08:25:10.078Z,25.00
2018-09-01T08:27:39.328Z,24.96
2018-09-01T08:30:08.583Z,24.93
2018-09-01T08:32:37.967Z,24.83
2018-09-01T08:35:07.295Z,24.83
2018-09-01T08:37:36.563Z,24.71
2018-09-01T08:40:06.324Z,24.44
2018-09-01T08:42:35.825Z,23.83
2018-09-01T08:45:04.541Z,23.42
2018-09-01T08:47:33.721Z,23.11
2018-09-01T08:50:03.961Z,22.92
2018-09-01T08:52:33.193Z,22.80
2018-09-01T08:55:01.857Z,22.64
2018-09-01T08:57:30.472Z,22.57
2018-09-01T08:59:59.138Z,22.51
2018-09-01T09:02:27.902Z,22.63
2018-09-01T09:04:57.064Z,22.75
2018-09-01T09:07:25.819Z,22.91
2018-09-01T09:09:54.496Z,22.91
2018-09-01T09:12:23.213Z,22.96
2018-09-01T09:14:52.379Z,22.91
2018-09-01T09:17:21.280Z,22.84
2018-09-01T09:19:49.922Z,22.79
2018-09-01T09:22:18.568Z,22.80
2018-09-01T09:27:22.580Z,22.97
2018-09-01T09:29:51.256Z,23.07
2018-09-01T09:32:20.420Z,23.28
2018-09-01T09:34:49.594Z,23.29
2018-09-01T09:37:18.860Z,23.38
2018-09-01T09:39:48.097Z,23.65
2018-09-01T09:42:17.407Z,23.67
2018-09-01T09:44:46.631Z,23.58
2018-09-01T09:47:15.919Z,23.43
2018-09-01T09:49:45.228Z,23.28
2018-09-01T09:52:14.449Z,23.13
2018-09-01T09:54:43.657Z,23.03
2018-09-01T09:57:12.832Z,22.74
2018-09-01T09:59:41.484Z,22.37
2018-09-01T10:02:10.085Z,22.09
2018-09-01T10:04:38.724Z,21.94
2018-09-01T10:07:07.597Z,21.83
2018-09-01T10:09:36.620Z,21.83
2018-09-01T10:12:05.244Z,21.89
2018-09-01T10:14:33.927Z,21.99
2018-09-01T10:17:02.643Z,22.11
2018-09-01T10:19:31.357Z,22.21
2018-09-01T10:22:00.100Z,22.33
2018-09-01T10:24:28.843Z,22.50
2018-09-01T10:26:57.674Z,22.60
2018-09-01T10:29:26.585Z,22.69
2018-09-01T10:31:55.835Z,22.72
2018-09-01T10:34:24.469Z,22.72
2018-09-01T10:36:53.160Z,22.83
2018-09-01T10:39:22.320Z,23.05
2018-09-01T10:41:51.573Z,23.30
2018-09-01T10:44:20.797Z,23.43
2018-09-01T10:46:49.515Z,23.38
2018-09-01T10:49:19.062Z,23.32
2018-09-01T10:51:48.311Z,23.30
2018-09-01T10:54:17.507Z,23.32
2018-09-01T10:56:46.739Z,23.36
2018-09-01T10:59:16.703Z,23.38
2018-09-01T11:01:46.235Z,23.39
2018-09-01T11:04:15.597Z,23.37
2018-09-01T11:06:44.770Z,23.35
2018-09-01T11:09:14.034Z,23.23
2018-09-01T11:11:43.230Z,23.18
2018-09-01T11:14:12.421Z,23.17
2018-09-01T11:16:41.654Z,23.10
2018-09-01T11:19:10.924Z,23.12
2018-09-01T11:21:40.136Z,23.15
2018-09-01T11:24:09.804Z,23.13
2018-09-01T11:26:39.269Z,23.12
2018-09-01T11:29:08.794Z,23.06
2018-09-01T11:31:37.976Z,22.94
2018-09-01T11:34:06.590Z,22.84
2018-09-01T11:36:35.708Z,22.84
2018-09-01T11:39:05.942Z,22.81
2018-09-01T11:41:35.158Z,22.76
2018-09-01T11:44:03.862Z,22.68
2018-09-01T11:46:32.866Z,22.61
2018-09-01T11:49:01.537Z,22.59
2018-09-01T11:51:30.904Z,22.58
2018-09-01T11:53:59.589Z,22.60
2018-09-01T11:56:28.226Z,22.63
2018-09-01T11:58:57.554Z,22.65
2018-09-01T12:01:26.315Z,22.66
2018-09-01T12:03:55.565Z,22.68
2018-09-01T12:06:24.156Z,22.69
2018-09-01T12:08:53.425Z,22.75
2018-09-01T12:11:22.312Z,22.83
2018-09-01T12:13:50.975Z,22.88
2018-09-01T12:16:20.156Z,22.95
2018-09-01T12:18:49.389Z,23.08
2018-09-01T12:21:18.653Z,23.21
2018-09-01T12:23:47.817Z,23.32
2018-09-01T12:26:16.479Z,23.41
2018-09-01T12:28:45.852Z,23.50
2018-09-01T12:31:15.084Z,23.52
2018-09-01T12:33:44.267Z,23.49
2018-09-01T12:36:13.460Z,23.43
2018-09-01T12:38:43.233Z,23.55
2018-09-01T12:41:13.272Z,23.79
2018-09-01T12:43:43.228Z,24.06
2018-09-01T12:46:12.496Z,24.35
2018-09-01T12:48:41.885Z,24.60
2018-09-01T12:51:11.124Z,24.69
2018-09-01T12:53:40.391Z,24.72
2018-09-01T12:56:10.780Z,24.63
2018-09-01T12:58:39.946Z,24.56
2018-09-01T13:01:09.194Z,24.58
2018-09-01T13:03:39.198Z,24.53
2018-09-01T13:06:09.347Z,24.63
2018-09-01T13:08:38.634Z,24.53
2018-09-01T13:11:08.192Z,24.30
2018-09-01T13:13:37.396Z,24.07
2018-09-01T13:16:06.700Z,23.97
2018-09-01T13:18:36.120Z,24.07
2018-09-01T13:21:05.681Z,24.18
2018-09-01T13:23:34.866Z,24.36
2018-09-01T13:26:04.077Z,24.37
2018-09-01T13:28:33.269Z,24.30
2018-09-01T13:31:02.508Z,24.29
2018-09-01T13:33:31.684Z,24.19
2018-09-01T13:36:00.933Z,24.09
2018-09-01T13:38:30.374Z,24.05
2018-09-01T13:40:59.879Z,24.07
2018-09-01T13:43:29.049Z,24.11
2018-09-01T13:45:58.380Z,24.17
2018-09-01T13:48:28.412Z,24.20
2018-09-01T13:50:57.669Z,24.09
2018-09-01T13:53:26.975Z,24.09
2018-09-01T13:55:56.265Z,24.08
2018-09-01T13:58:25.552Z,23.98
2018-09-01T14:00:54.984Z,23.76
2018-09-01T14:03:24.334Z,23.57
2018-09-01T14:05:55.258Z,23.48
2018-09-01T14:08:24.536Z,23.40
2018-09-01T14:10:53.728Z,23.34
2018-09-01T14:13:22.969Z,23.33
2018-09-01T14:15:52.237Z,23.37
2018-09-01T14:18:21.461Z,23.35
2018-09-01T14:20:50.697Z,23.41
2018-09-01T14:23:19.955Z,23.47
2018-09-01T14:25:49.256Z,23.56
2018-09-01T14:28:18.492Z,23.59
2018-09-01T14:30:47.813Z,23.59
2018-09-01T14:33:17.116Z,23.62
2018-09-01T14:35:46.297Z,23.63
2018-09-01T14:38:15.641Z,23.69
2018-09-01T14:40:44.896Z,23.72
2018-09-01T14:43:14.321Z,23.70
2018-09-01T14:45:43.539Z,23.67
2018-09-01T14:48:12.820Z,23.54
2018-09-01T14:50:42.919Z,23.54
2018-09-01T14:53:12.253Z,23.51
2018-09-01T14:55:41.790Z,23.48
2018-09-01T14:58:10.969Z,23.42
2018-09-01T15:00:40.460Z,23.36
2018-09-01T15:03:09.649Z,23.33
2018-09-01T15:05:39.113Z,23.29
2018-09-01T15:08:08.616Z,23.27
2018-09-01T15:10:37.895Z,23.25
2018-09-01T15:13:07.141Z,23.21
2018-09-01T15:15:35.779Z,23.20
2018-09-01T15:18:04.939Z,23.13
2018-09-01T15:20:34.260Z,23.10
2018-09-01T15:23:03.437Z,23.09
2018-09-01T15:25:32.680Z,23.10
2018-09-01T15:28:01.628Z,23.09
2018-09-01T15:30:30.972Z,23.08
2018-09-01T15:33:00.194Z,23.05
2018-09-01T15:35:29.068Z,23.01
2018-09-01T15:37:58.827Z,22.96
2018-09-01T15:40:28.124Z,22.89
2018-09-01T15:42:56.819Z,22.76
2018-09-01T15:45:25.504Z,22.66
2018-09-01T15:47:54.732Z,22.60
2018-09-01T15:50:23.379Z,22.54
2018-09-01T15:52:52.009Z,22.53
2018-09-01T15:55:20.628Z,22.50
2018-09-01T15:57:49.196Z,22.49
2018-09-01T16:00:17.820Z,22.50
2018-09-01T16:02:46.733Z,22.45
2018-09-01T16:05:16.312Z,22.37
2018-09-01T16:07:45.067Z,22.28
2018-09-01T16:10:13.688Z,22.21
2018-09-01T16:12:42.480Z,22.13
2018-09-01T16:15:11.718Z,22.06
2018-09-01T16:17:40.440Z,22.00
2018-09-01T16:20:09.036Z,21.83
2018-09-01T16:22:37.637Z,21.68
2018-09-01T16:25:06.598Z,21.51
2018-09-01T16:27:35.486Z,21.36
2018-09-01T16:30:04.206Z,20.49
2018-09-01T16:32:32.858Z,19.37
2018-09-01T16:35:01.695Z,18.72
2018-09-01T16:37:30.334Z,18.38
2018-09-01T16:39:59.057Z,18.14
2018-09-01T16:42:27.771Z,18.02
2018-09-01T16:44:56.370Z,18.01
2018-09-01T16:47:25.671Z,17.98
2018-09-01T16:49:54.348Z,17.90
2018-09-01T16:52:22.997Z,17.84
2018-09-01T16:54:51.729Z,17.80
2018-09-01T16:57:20.383Z,17.77
2018-09-01T16:59:49.162Z,17.74
2018-09-01T17:02:17.754Z,17.69
2018-09-01T17:04:46.341Z,17.67
2018-09-01T17:07:15.077Z,17.67
2018-09-01T17:09:43.963Z,17.63
2018-09-01T17:12:12.541Z,17.62
2018-09-01T17:14:41.281Z,17.61
2018-09-01T17:17:09.909Z,17.56
2018-09-01T17:19:38.672Z,17.55
2018-09-01T17:22:07.664Z,17.55
2018-09-01T17:24:36.300Z,17.55
2018-09-01T17:27:05.037Z,17.51
2018-09-01T17:29:33.826Z,17.48
2018-09-01T17:32:03.458Z,17.46
2018-09-01T17:34:32.069Z,17.46
2018-09-01T17:37:00.728Z,17.47
2018-09-01T17:39:29.316Z,17.49
2018-09-01T17:41:57.884Z,17.50
2018-09-01T17:44:26.505Z,17.49
2018-09-01T17:46:55.247Z,17.50
2018-09-01T17:49:23.827Z,17.46
2018-09-01T17:51:52.410Z,17.45
2018-09-01T17:54:21.137Z,17.40
2018-09-01T17:56:49.805Z,17.35
2018-09-01T17:59:18.742Z,17.34
2018-09-01T18:01:47.395Z,17.24
2018-09-01T18:04:15.972Z,17.24
2018-09-01T18:06:44.610Z,17.23
2018-09-01T18:09:13.236Z,17.30
2018-09-01T18:11:41.815Z,17.34
2018-09-01T18:14:10.557Z,17.35
2018-09-01T18:16:39.216Z,17.34
2018-09-01T18:19:08.353Z,17.36
2018-09-01T18:21:37.044Z,17.42
2018-09-01T18:24:05.728Z,17.41
2018-09-01T18:26:34.377Z,17.42
2018-09-01T18:29:03.068Z,17.43
2018-09-01T18:31:32.032Z,17.45
2018-09-01T18:34:00.636Z,17.43
2018-09-01T18:36:29.377Z,17.45
2018-09-01T18:38:58.040Z,17.47
2018-09-01T18:41:26.988Z,17.50
2018-09-01T18:43:55.624Z,17.49
2018-09-01T18:46:24.299Z,17.47
2018-09-01T18:48:53.055Z,17.49
2018-09-01T18:51:21.645Z,17.48
2018-09-01T18:53:50.268Z,17.43
2018-09-01T18:56:18.888Z,17.41
2018-09-01T18:58:47.524Z,17.39
2018-09-01T19:01:16.148Z,17.33
2018-09-01T19:03:44.733Z,17.33
2018-09-01T19:06:13.526Z,17.29
2018-09-01T19:08:42.292Z,17.29
2018-09-01T19:11:10.947Z,17.27
2018-09-01T19:13:39.947Z,17.29
2018-09-01T19:16:08.820Z,17.27
2018-09-01T19:18:37.825Z,17.21
2018-09-01T19:21:07.206Z,17.22
2018-09-01T19:23:37.037Z,17.20
2018-09-01T19:26:05.960Z,17.17
2018-09-01T19:28:34.691Z,17.13
2018-09-01T19:31:03.449Z,17.16
2018-09-01T19:33:32.107Z,17.17
2018-09-01T19:36:00.768Z,17.17
2018-09-01T19:38:29.492Z,17.19
2018-09-01T19:40:58.227Z,17.20
2018-09-01T19:43:26.909Z,17.19
2018-09-01T19:45:55.574Z,17.17
2018-09-01T19:48:24.220Z,17.13
2018-09-01T19:50:52.974Z,17.12
2018-09-01T19:53:21.661Z,17.12
2018-09-01T19:55:50.281Z,17.13
2018-09-01T19:58:18.942Z,17.14
2018-09-01T20:00:47.657Z,17.13
2018-09-01T20:03:16.302Z,17.08
2018-09-01T20:05:44.894Z,17.12
2018-09-01T20:08:13.553Z,17.14
2018-09-01T20:10:42.213Z,17.10
2018-09-01T20:13:10.885Z,17.08
2018-09-01T20:15:39.480Z,17.06
2018-09-01T20:18:08.088Z,17.04
2018-09-01T20:20:36.735Z,17.01
2018-09-01T20:23:05.756Z,16.93
2018-09-01T20:25:34.467Z,16.85
2018-09-01T20:28:03.069Z,16.81
2018-09-01T20:30:31.803Z,16.75
2018-09-01T20:33:00.512Z,16.74
2018-09-01T20:35:34.456Z,16.71
2018-09-01T20:38:03.206Z,16.60
2018-09-01T20:40:32.012Z,16.64
2018-09-01T20:43:00.637Z,16.69
2018-09-01T20:45:29.315Z,16.66
2018-09-01T20:47:58.123Z,16.62
2018-09-01T20:50:26.959Z,16.58
2018-09-01T20:52:55.647Z,16.52
2018-09-01T20:55:24.807Z,16.54
2018-09-01T20:57:53.527Z,16.62
2018-09-01T21:00:22.197Z,16.62
2018-09-01T21:02:50.869Z,16.59
2018-09-01T21:05:19.508Z,16.58
2018-09-01T21:07:48.880Z,16.58
2018-09-01T21:10:17.555Z,16.60
2018-09-01T21:12:46.400Z,16.58
2018-09-01T21:15:15.240Z,16.53
2018-09-01T21:17:43.891Z,16.47
2018-09-01T21:20:12.572Z,16.46
2018-09-01T21:22:41.153Z,16.45
2018-09-01T21:25:10.147Z,16.42
2018-09-01T21:27:38.970Z,16.41
2018-09-01T21:30:08.108Z,16.39
2018-09-01T21:32:36.697Z,16.38
2018-09-01T21:35:06.822Z,16.37
2018-09-01T21:37:35.484Z,16.36
2018-09-01T21:40:04.882Z,16.35
2018-09-01T21:42:33.571Z,16.32
2018-09-01T21:45:02.224Z,16.28
2018-09-01T21:47:30.892Z,16.26
2018-09-01T21:49:59.604Z,16.25
2018-09-01T21:52:28.315Z,16.26
2018-09-01T21:54:56.898Z,16.22
2018-09-01T21:57:25.618Z,16.18
2018-09-01T21:59:54.436Z,16.22
2018-09-01T22:02:23.040Z,16.21
2018-09-01T22:04:57.024Z,16.21
2018-09-01T22:07:25.741Z,16.21
2018-09-01T22:09:55.217Z,16.20
2018-09-01T22:12:25.096Z,16.16
2018-09-01T22:14:54.616Z,16.17
2018-09-01T22:17:23.701Z,16.15
2018-09-01T22:19:52.327Z,16.12
2018-09-01T22:22:21.947Z,16.12
2018-09-01T22:24:50.634Z,16.12
2018-09-01T22:27:19.263Z,16.11
2018-09-01T22:29:47.864Z,16.10
2018-09-01T22:32:16.489Z,16.07
2018-09-01T22:34:45.221Z,16.02
2018-09-01T22:37:14.248Z,16.04
2018-09-01T22:39:42.889Z,16.01
2018-09-01T22:42:11.480Z,15.97
2018-09-01T22:44:40.161Z,15.99
2018-09-01T22:47:12.576Z,15.99
2018-09-01T22:49:41.269Z,15.96
2018-09-01T22:52:09.913Z,15.93
2018-09-01T22:54:38.603Z,15.88
2018-09-01T22:57:07.361Z,15.86
2018-09-01T22:59:36.040Z,15.84
2018-09-01T23:02:05.668Z,15.85
2018-09-01T23:04:34.336Z,15.86
2018-09-01T23:07:02.992Z,15.88
2018-09-01T23:09:31.580Z,15.85
2018-09-01T23:12:00.506Z,15.84
2018-09-01T23:14:29.132Z,15.84
2018-09-01T23:16:57.983Z,15.82
2018-09-01T23:19:26.713Z,15.76
2018-09-01T23:21:55.305Z,15.78
2018-09-01T23:24:23.977Z,15.80
2018-09-01T23:26:52.587Z,15.77
2018-09-01T23:29:21.193Z,15.78
2018-09-01T23:31:49.793Z,15.81
2018-09-01T23:34:18.833Z,15.83
2018-09-01T23:36:47.513Z,15.82
2018-09-01T23:39:16.114Z,15.82
2018-09-01T23:41:45.182Z,15.84
2018-09-01T23:44:13.799Z,15.82
2018-09-01T23:46:42.391Z,15.84
2018-09-01T23:49:11.009Z,15.86
2018-09-01T23:51:39.634Z,15.86
2018-09-01T23:54:08.234Z,15.90
2018-09-01T23:56:36.824Z,15.91
2018-09-01T23:59:06.123Z,15.91
